sensor_id;sensor_type;location;lat;lon;timestamp;temperature;humidity
33827;DHT22;20128;45.582;5.298;2023-08-06T00:00:09;23.40;56.00
33827;DHT22;20128;45.582;5.298;2023-08-06T00:02:35;23.40;56.10
33827;DHT22;20128;45.582;5.298;2023-08-06T00:05:01;23.40;56.30
33827;DHT22;20128;45.582;5.298;2023-08-06T00:07:26;23.40;56.40
33827;DHT22;20128;45.582;5.298;2023-08-06T00:09:52;23.40;56.50
33827;DHT22;20128;45.582;5.298;2023-08-06T00:12:18;23.40;56.40
33827;DHT22;20128;45.582;5.298;2023-08-06T00:14:43;23.30;56.60
33827;DHT22;20128;45.582;5.298;2023-08-06T00:17:09;23.30;56.70
33827;DHT22;20128;45.582;5.298;2023-08-06T00:19:37;23.40;56.80
33827;DHT22;20128;45.582;5.298;2023-08-06T00:22:03;23.30;56.70
33827;DHT22;20128;45.582;5.298;2023-08-06T00:24:29;23.10;56.70
33827;DHT22;20128;45.582;5.298;2023-08-06T00:26:54;23.00;56.90
33827;DHT22;20128;45.582;5.298;2023-08-06T00:29:20;22.90;57.10
33827;DHT22;20128;45.582;5.298;2023-08-06T00:31:45;22.80;57.00
33827;DHT22;20128;45.582;5.298;2023-08-06T00:34:11;22.70;57.30
33827;DHT22;20128;45.582;5.298;2023-08-06T00:36:36;22.70;57.40
33827;DHT22;20128;45.582;5.298;2023-08-06T00:39:02;22.70;58.20
33827;DHT22;20128;45.582;5.298;2023-08-06T00:41:28;22.70;57.90
33827;DHT22;20128;45.582;5.298;2023-08-06T00:43:54;22.70;57.90
33827;DHT22;20128;45.582;5.298;2023-08-06T00:46:20;22.70;58.00
33827;DHT22;20128;45.582;5.298;2023-08-06T00:48:46;22.70;58.10
33827;DHT22;20128;45.582;5.298;2023-08-06T00:51:12;22.80;58.10
33827;DHT22;20128;45.582;5.298;2023-08-06T00:53:39;22.90;58.00
33827;DHT22;20128;45.582;5.298;2023-08-06T00:56:06;23.00;57.90
33827;DHT22;20128;45.582;5.298;2023-08-06T00:58:33;23.00;57.80
33827;DHT22;20128;45.582;5.298;2023-08-06T01:00:59;23.10;57.80
33827;DHT22;20128;45.582;5.298;2023-08-06T01:03:25;23.20;57.70
33827;DHT22;20128;45.582;5.298;2023-08-06T01:05:51;23.20;57.60
33827;DHT22;20128;45.582;5.298;2023-08-06T01:08:46;23.20;57.50
33827;DHT22;20128;45.582;5.298;2023-08-06T01:11:23;23.20;57.50
33827;DHT22;20128;45.582;5.298;2023-08-06T01:13:58;23.20;57.50
33827;DHT22;20128;45.582;5.298;2023-08-06T01:16:25;23.20;57.40
33827;DHT22;20128;45.582;5.298;2023-08-06T01:18:51;23.20;57.40
33827;DHT22;20128;45.582;5.298;2023-08-06T01:21:18;23.30;57.90
33827;DHT22;20128;45.582;5.298;2023-08-06T01:23:44;23.20;57.70
33827;DHT22;20128;45.582;5.298;2023-08-06T01:26:18;23.20;56.90
33827;DHT22;20128;45.582;5.298;2023-08-06T01:29:03;23.20;56.80
33827;DHT22;20128;45.582;5.298;2023-08-06T01:31:34;23.20;56.80
33827;DHT22;20128;45.582;5.298;2023-08-06T01:34:02;23.30;57.20
33827;DHT22;20128;45.582;5.298;2023-08-06T01:36:28;23.20;55.70
33827;DHT22;20128;45.582;5.298;2023-08-06T01:38:55;23.20;55.90
33827;DHT22;20128;45.582;5.298;2023-08-06T01:41:23;23.10;54.60
33827;DHT22;20128;45.582;5.298;2023-08-06T01:43:48;23.00;55.40
33827;DHT22;20128;45.582;5.298;2023-08-06T01:46:14;23.00;54.80
33827;DHT22;20128;45.582;5.298;2023-08-06T01:48:40;23.00;54.50
33827;DHT22;20128;45.582;5.298;2023-08-06T01:51:06;22.90;55.10
33827;DHT22;20128;45.582;5.298;2023-08-06T01:53:33;23.00;55.60
33827;DHT22;20128;45.582;5.298;2023-08-06T01:55:59;23.00;55.30
33827;DHT22;20128;45.582;5.298;2023-08-06T01:58:25;23.00;55.40
33827;DHT22;20128;45.582;5.298;2023-08-06T02:00:50;23.00;55.50
33827;DHT22;20128;45.582;5.298;2023-08-06T02:03:16;23.00;55.40
33827;DHT22;20128;45.582;5.298;2023-08-06T02:05:42;23.00;55.40
33827;DHT22;20128;45.582;5.298;2023-08-06T02:08:07;22.90;54.30
33827;DHT22;20128;45.582;5.298;2023-08-06T02:10:33;22.80;54.30
33827;DHT22;20128;45.582;5.298;2023-08-06T02:12:59;22.80;54.10
33827;DHT22;20128;45.582;5.298;2023-08-06T02:15:25;22.70;54.20
33827;DHT22;20128;45.582;5.298;2023-08-06T02:17:50;22.70;54.60
33827;DHT22;20128;45.582;5.298;2023-08-06T02:20:16;22.60;54.50
33827;DHT22;20128;45.582;5.298;2023-08-06T02:22:42;22.60;54.30
33827;DHT22;20128;45.582;5.298;2023-08-06T02:25:08;22.50;54.30
33827;DHT22;20128;45.582;5.298;2023-08-06T02:27:33;22.40;54.90
33827;DHT22;20128;45.582;5.298;2023-08-06T02:29:59;22.40;55.00
33827;DHT22;20128;45.582;5.298;2023-08-06T02:32:24;22.40;54.40
33827;DHT22;20128;45.582;5.298;2023-08-06T02:34:50;22.30;54.50
33827;DHT22;20128;45.582;5.298;2023-08-06T02:37:16;22.20;55.30
33827;DHT22;20128;45.582;5.298;2023-08-06T02:39:41;22.20;55.70
33827;DHT22;20128;45.582;5.298;2023-08-06T02:42:07;22.10;54.50
33827;DHT22;20128;45.582;5.298;2023-08-06T02:44:34;22.00;55.30
33827;DHT22;20128;45.582;5.298;2023-08-06T02:47:00;21.90;55.60
33827;DHT22;20128;45.582;5.298;2023-08-06T02:49:25;21.80;55.60
33827;DHT22;20128;45.582;5.298;2023-08-06T02:51:51;21.80;55.60
33827;DHT22;20128;45.582;5.298;2023-08-06T02:54:18;21.80;55.90
33827;DHT22;20128;45.582;5.298;2023-08-06T02:56:45;21.70;55.80
33827;DHT22;20128;45.582;5.298;2023-08-06T02:59:11;21.80;55.90
33827;DHT22;20128;45.582;5.298;2023-08-06T03:01:36;21.70;55.60
33827;DHT22;20128;45.582;5.298;2023-08-06T03:04:02;21.70;56.20
33827;DHT22;20128;45.582;5.298;2023-08-06T03:06:28;21.70;56.30
33827;DHT22;20128;45.582;5.298;2023-08-06T03:08:54;21.70;56.20
33827;DHT22;20128;45.582;5.298;2023-08-06T03:11:20;21.70;56.40
33827;DHT22;20128;45.582;5.298;2023-08-06T03:13:46;21.80;56.50
33827;DHT22;20128;45.582;5.298;2023-08-06T03:16:12;21.80;56.30
33827;DHT22;20128;45.582;5.298;2023-08-06T03:18:37;21.80;56.40
33827;DHT22;20128;45.582;5.298;2023-08-06T03:21:03;21.90;56.70
33827;DHT22;20128;45.582;5.298;2023-08-06T03:23:29;22.00;56.30
33827;DHT22;20128;45.582;5.298;2023-08-06T03:25:54;21.90;56.30
33827;DHT22;20128;45.582;5.298;2023-08-06T03:28:20;21.90;56.40
33827;DHT22;20128;45.582;5.298;2023-08-06T03:30:46;21.90;56.10
33827;DHT22;20128;45.582;5.298;2023-08-06T03:33:11;21.90;55.70
33827;DHT22;20128;45.582;5.298;2023-08-06T03:35:37;21.80;55.60
33827;DHT22;20128;45.582;5.298;2023-08-06T03:38:02;21.70;55.80
33827;DHT22;20128;45.582;5.298;2023-08-06T03:40:28;21.70;56.00
33827;DHT22;20128;45.582;5.298;2023-08-06T03:42:54;21.70;55.40
33827;DHT22;20128;45.582;5.298;2023-08-06T03:45:19;21.50;55.40
33827;DHT22;20128;45.582;5.298;2023-08-06T03:47:45;21.40;55.70
33827;DHT22;20128;45.582;5.298;2023-08-06T03:50:11;21.40;55.60
33827;DHT22;20128;45.582;5.298;2023-08-06T03:52:36;21.30;55.80
33827;DHT22;20128;45.582;5.298;2023-08-06T03:55:02;21.30;56.40
33827;DHT22;20128;45.582;5.298;2023-08-06T03:57:28;21.30;56.40
33827;DHT22;20128;45.582;5.298;2023-08-06T03:59:53;21.40;56.60
33827;DHT22;20128;45.582;5.298;2023-08-06T04:02:19;21.50;55.90
33827;DHT22;20128;45.582;5.298;2023-08-06T04:04:45;21.50;56.00
33827;DHT22;20128;45.582;5.298;2023-08-06T04:07:11;21.50;55.60
33827;DHT22;20128;45.582;5.298;2023-08-06T04:10:00;21.50;56.50
33827;DHT22;20128;45.582;5.298;2023-08-06T04:12:27;21.50;55.70
33827;DHT22;20128;45.582;5.298;2023-08-06T04:14:53;21.40;55.40
33827;DHT22;20128;45.582;5.298;2023-08-06T04:17:20;21.40;55.50
33827;DHT22;20128;45.582;5.298;2023-08-06T04:19:51;21.40;55.80
33827;DHT22;20128;45.582;5.298;2023-08-06T04:22:17;21.40;55.60
33827;DHT22;20128;45.582;5.298;2023-08-06T04:24:42;21.30;55.50
33827;DHT22;20128;45.582;5.298;2023-08-06T04:27:09;21.30;55.70
33827;DHT22;20128;45.582;5.298;2023-08-06T04:29:35;21.30;56.20
33827;DHT22;20128;45.582;5.298;2023-08-06T04:32:01;21.40;56.00
33827;DHT22;20128;45.582;5.298;2023-08-06T04:34:27;21.50;56.20
33827;DHT22;20128;45.582;5.298;2023-08-06T04:36:52;21.50;56.10
33827;DHT22;20128;45.582;5.298;2023-08-06T04:39:18;21.60;56.10
33827;DHT22;20128;45.582;5.298;2023-08-06T04:41:44;21.60;56.20
33827;DHT22;20128;45.582;5.298;2023-08-06T04:44:09;21.60;56.10
33827;DHT22;20128;45.582;5.298;2023-08-06T04:46:35;21.60;55.70
33827;DHT22;20128;45.582;5.298;2023-08-06T04:49:01;21.50;55.00
33827;DHT22;20128;45.582;5.298;2023-08-06T04:51:26;21.50;55.30
33827;DHT22;20128;45.582;5.298;2023-08-06T04:53:52;21.50;55.40
33827;DHT22;20128;45.582;5.298;2023-08-06T04:56:17;21.50;55.70
33827;DHT22;20128;45.582;5.298;2023-08-06T04:58:43;21.60;55.90
33827;DHT22;20128;45.582;5.298;2023-08-06T05:01:09;21.70;55.60
33827;DHT22;20128;45.582;5.298;2023-08-06T05:03:34;21.70;55.30
33827;DHT22;20128;45.582;5.298;2023-08-06T05:06:00;21.70;55.60
33827;DHT22;20128;45.582;5.298;2023-08-06T05:08:26;21.70;55.10
33827;DHT22;20128;45.582;5.298;2023-08-06T05:10:51;21.70;55.10
33827;DHT22;20128;45.582;5.298;2023-08-06T05:13:17;21.70;55.10
33827;DHT22;20128;45.582;5.298;2023-08-06T05:15:42;21.60;54.80
33827;DHT22;20128;45.582;5.298;2023-08-06T05:18:10;21.50;54.70
33827;DHT22;20128;45.582;5.298;2023-08-06T05:20:40;21.40;55.90
33827;DHT22;20128;45.582;5.298;2023-08-06T05:23:07;21.20;56.60
33827;DHT22;20128;45.582;5.298;2023-08-06T05:25:35;21.00;59.60
33827;DHT22;20128;45.582;5.298;2023-08-06T05:28:01;20.80;59.80
33827;DHT22;20128;45.582;5.298;2023-08-06T05:30:27;20.80;59.90
33827;DHT22;20128;45.582;5.298;2023-08-06T05:32:53;20.90;60.30
33827;DHT22;20128;45.582;5.298;2023-08-06T05:35:18;21.00;59.80
33827;DHT22;20128;45.582;5.298;2023-08-06T05:37:44;21.20;60.80
33827;DHT22;20128;45.582;5.298;2023-08-06T05:40:10;21.20;60.90
33827;DHT22;20128;45.582;5.298;2023-08-06T05:42:35;21.20;60.90
33827;DHT22;20128;45.582;5.298;2023-08-06T05:45:01;21.30;61.00
33827;DHT22;20128;45.582;5.298;2023-08-06T05:47:27;21.40;60.80
33827;DHT22;20128;45.582;5.298;2023-08-06T05:49:52;21.50;60.80
33827;DHT22;20128;45.582;5.298;2023-08-06T05:52:18;21.60;60.90
33827;DHT22;20128;45.582;5.298;2023-08-06T05:54:43;21.70;60.70
33827;DHT22;20128;45.582;5.298;2023-08-06T05:57:09;21.80;60.70
33827;DHT22;20128;45.582;5.298;2023-08-06T05:59:35;21.80;60.60
33827;DHT22;20128;45.582;5.298;2023-08-06T06:02:00;21.80;60.90
33827;DHT22;20128;45.582;5.298;2023-08-06T06:04:26;21.70;60.80
33827;DHT22;20128;45.582;5.298;2023-08-06T06:06:51;21.70;61.00
33827;DHT22;20128;45.582;5.298;2023-08-06T06:09:17;21.70;61.30
33827;DHT22;20128;45.582;5.298;2023-08-06T06:11:43;21.50;59.50
33827;DHT22;20128;45.582;5.298;2023-08-06T06:14:08;21.30;60.60
33827;DHT22;20128;45.582;5.298;2023-08-06T06:16:34;21.10;60.30
33827;DHT22;20128;45.582;5.298;2023-08-06T06:19:01;20.90;60.30
33827;DHT22;20128;45.582;5.298;2023-08-06T06:21:27;20.90;61.00
33827;DHT22;20128;45.582;5.298;2023-08-06T06:23:52;20.90;60.90
33827;DHT22;20128;45.582;5.298;2023-08-06T06:26:18;20.90;60.20
33827;DHT22;20128;45.582;5.298;2023-08-06T06:28:44;20.80;60.60
33827;DHT22;20128;45.582;5.298;2023-08-06T06:31:10;20.90;60.60
33827;DHT22;20128;45.582;5.298;2023-08-06T06:33:36;20.80;59.90
33827;DHT22;20128;45.582;5.298;2023-08-06T06:36:02;20.70;60.40
33827;DHT22;20128;45.582;5.298;2023-08-06T06:38:29;20.80;60.20
33827;DHT22;20128;45.582;5.298;2023-08-06T06:40:57;20.70;59.80
33827;DHT22;20128;45.582;5.298;2023-08-06T06:43:23;20.70;60.40
33827;DHT22;20128;45.582;5.298;2023-08-06T06:45:59;20.70;59.80
33827;DHT22;20128;45.582;5.298;2023-08-06T06:48:27;20.70;59.70
33827;DHT22;20128;45.582;5.298;2023-08-06T06:50:52;20.70;60.20
33827;DHT22;20128;45.582;5.298;2023-08-06T06:53:18;20.70;59.40
33827;DHT22;20128;45.582;5.298;2023-08-06T06:55:44;20.60;59.60
33827;DHT22;20128;45.582;5.298;2023-08-06T06:58:09;20.60;59.20
33827;DHT22;20128;45.582;5.298;2023-08-06T07:00:38;20.50;59.20
33827;DHT22;20128;45.582;5.298;2023-08-06T07:03:04;20.40;59.30
33827;DHT22;20128;45.582;5.298;2023-08-06T07:05:30;20.30;59.00
33827;DHT22;20128;45.582;5.298;2023-08-06T07:07:55;20.30;58.80
33827;DHT22;20128;45.582;5.298;2023-08-06T07:10:21;20.20;59.10
33827;DHT22;20128;45.582;5.298;2023-08-06T07:12:47;20.20;58.50
33827;DHT22;20128;45.582;5.298;2023-08-06T07:15:12;20.20;58.50
33827;DHT22;20128;45.582;5.298;2023-08-06T07:17:38;20.20;58.80
33827;DHT22;20128;45.582;5.298;2023-08-06T07:20:04;20.20;59.10
33827;DHT22;20128;45.582;5.298;2023-08-06T07:22:30;20.30;58.80
33827;DHT22;20128;45.582;5.298;2023-08-06T07:24:55;20.30;58.40
33827;DHT22;20128;45.582;5.298;2023-08-06T07:27:21;20.40;58.40
33827;DHT22;20128;45.582;5.298;2023-08-06T07:29:46;20.40;58.00
33827;DHT22;20128;45.582;5.298;2023-08-06T07:32:13;20.50;57.70
33827;DHT22;20128;45.582;5.298;2023-08-06T07:34:39;20.50;57.40
33827;DHT22;20128;45.582;5.298;2023-08-06T07:37:05;20.50;57.60
33827;DHT22;20128;45.582;5.298;2023-08-06T07:39:31;20.30;57.10
33827;DHT22;20128;45.582;5.298;2023-08-06T07:41:56;20.30;57.70
33827;DHT22;20128;45.582;5.298;2023-08-06T07:44:22;20.30;57.60
33827;DHT22;20128;45.582;5.298;2023-08-06T07:46:49;20.30;58.40
33827;DHT22;20128;45.582;5.298;2023-08-06T07:49:15;20.20;58.30
33827;DHT22;20128;45.582;5.298;2023-08-06T07:51:40;20.20;58.30
33827;DHT22;20128;45.582;5.298;2023-08-06T07:54:06;20.20;58.30
33827;DHT22;20128;45.582;5.298;2023-08-06T07:56:32;20.20;58.20
33827;DHT22;20128;45.582;5.298;2023-08-06T07:58:57;20.30;58.20
33827;DHT22;20128;45.582;5.298;2023-08-06T08:01:23;20.30;58.10
33827;DHT22;20128;45.582;5.298;2023-08-06T08:03:48;20.50;58.00
33827;DHT22;20128;45.582;5.298;2023-08-06T08:06:14;20.60;57.70
33827;DHT22;20128;45.582;5.298;2023-08-06T08:08:39;20.60;57.30
33827;DHT22;20128;45.582;5.298;2023-08-06T08:11:06;20.60;56.80
33827;DHT22;20128;45.582;5.298;2023-08-06T08:13:31;20.50;57.30
33827;DHT22;20128;45.582;5.298;2023-08-06T08:15:58;20.40;56.20
33827;DHT22;20128;45.582;5.298;2023-08-06T08:18:24;20.30;56.10
33827;DHT22;20128;45.582;5.298;2023-08-06T08:20:50;20.20;56.00
33827;DHT22;20128;45.582;5.298;2023-08-06T08:23:16;20.20;56.40
33827;DHT22;20128;45.582;5.298;2023-08-06T08:25:41;20.20;56.20
33827;DHT22;20128;45.582;5.298;2023-08-06T08:28:07;20.20;56.10
33827;DHT22;20128;45.582;5.298;2023-08-06T08:30:33;20.30;55.90
33827;DHT22;20128;45.582;5.298;2023-08-06T08:32:59;20.30;56.10
33827;DHT22;20128;45.582;5.298;2023-08-06T08:35:25;20.30;55.80
33827;DHT22;20128;45.582;5.298;2023-08-06T08:37:50;20.30;55.20
33827;DHT22;20128;45.582;5.298;2023-08-06T08:40:16;20.30;55.20
33827;DHT22;20128;45.582;5.298;2023-08-06T08:42:43;20.20;55.40
33827;DHT22;20128;45.582;5.298;2023-08-06T08:45:13;20.30;55.70
33827;DHT22;20128;45.582;5.298;2023-08-06T08:47:41;20.30;56.10
33827;DHT22;20128;45.582;5.298;2023-08-06T08:50:08;20.40;55.70
33827;DHT22;20128;45.582;5.298;2023-08-06T08:52:35;20.60;55.60
33827;DHT22;20128;45.582;5.298;2023-08-06T08:55:02;20.80;55.40
33827;DHT22;20128;45.582;5.298;2023-08-06T08:57:27;20.90;55.90
33827;DHT22;20128;45.582;5.298;2023-08-06T08:59:55;20.90;55.20
33827;DHT22;20128;45.582;5.298;2023-08-06T09:02:21;20.80;57.60
33827;DHT22;20128;45.582;5.298;2023-08-06T09:04:48;20.60;60.00
33827;DHT22;20128;45.582;5.298;2023-08-06T09:07:18;20.50;61.30
33827;DHT22;20128;45.582;5.298;2023-08-06T09:09:46;20.30;61.20
33827;DHT22;20128;45.582;5.298;2023-08-06T09:12:17;20.30;61.70
33827;DHT22;20128;45.582;5.298;2023-08-06T09:14:43;20.20;62.10
33827;DHT22;20128;45.582;5.298;2023-08-06T09:17:09;20.10;62.80
33827;DHT22;20128;45.582;5.298;2023-08-06T09:19:36;20.00;62.30
33827;DHT22;20128;45.582;5.298;2023-08-06T09:22:02;20.10;61.20
33827;DHT22;20128;45.582;5.298;2023-08-06T09:24:28;20.10;61.20
33827;DHT22;20128;45.582;5.298;2023-08-06T09:26:54;20.20;60.30
33827;DHT22;20128;45.582;5.298;2023-08-06T09:29:20;20.30;59.70
33827;DHT22;20128;45.582;5.298;2023-08-06T09:31:50;20.20;59.60
33827;DHT22;20128;45.582;5.298;2023-08-06T09:34:21;20.10;60.60
33827;DHT22;20128;45.582;5.298;2023-08-06T09:36:51;20.10;59.40
33827;DHT22;20128;45.582;5.298;2023-08-06T09:39:26;20.10;57.60
33827;DHT22;20128;45.582;5.298;2023-08-06T09:41:59;20.00;58.30
33827;DHT22;20128;45.582;5.298;2023-08-06T09:44:26;20.10;58.00
33827;DHT22;20128;45.582;5.298;2023-08-06T09:46:53;20.30;58.00
33827;DHT22;20128;45.582;5.298;2023-08-06T09:49:22;20.30;58.40
33827;DHT22;20128;45.582;5.298;2023-08-06T09:51:48;20.40;56.90
33827;DHT22;20128;45.582;5.298;2023-08-06T09:54:16;20.50;57.10
33827;DHT22;20128;45.582;5.298;2023-08-06T09:56:42;20.60;57.40
33827;DHT22;20128;45.582;5.298;2023-08-06T09:59:09;20.70;57.50
33827;DHT22;20128;45.582;5.298;2023-08-06T10:01:36;20.70;57.50
33827;DHT22;20128;45.582;5.298;2023-08-06T10:04:06;20.70;55.80
33827;DHT22;20128;45.582;5.298;2023-08-06T10:06:37;20.70;56.40
33827;DHT22;20128;45.582;5.298;2023-08-06T10:09:06;20.70;56.00
33827;DHT22;20128;45.582;5.298;2023-08-06T10:11:33;20.90;56.30
33827;DHT22;20128;45.582;5.298;2023-08-06T10:14:12;21.00;56.00
33827;DHT22;20128;45.582;5.298;2023-08-06T10:16:40;21.10;56.40
33827;DHT22;20128;45.582;5.298;2023-08-06T10:19:09;21.30;56.20
33827;DHT22;20128;45.582;5.298;2023-08-06T10:21:35;21.40;55.30
33827;DHT22;20128;45.582;5.298;2023-08-06T10:24:00;21.40;55.40
33827;DHT22;20128;45.582;5.298;2023-08-06T10:26:29;21.30;54.80
33827;DHT22;20128;45.582;5.298;2023-08-06T10:28:55;21.30;54.80
33827;DHT22;20128;45.582;5.298;2023-08-06T10:34:58;21.10;56.00
33827;DHT22;20128;45.582;5.298;2023-08-06T10:37:34;21.20;55.30
33827;DHT22;20128;45.582;5.298;2023-08-06T10:40:00;21.20;54.40
33827;DHT22;20128;45.582;5.298;2023-08-06T10:42:29;21.30;53.60
33827;DHT22;20128;45.582;5.298;2023-08-06T10:47:38;21.40;53.30
33827;DHT22;20128;45.582;5.298;2023-08-06T10:50:06;21.50;52.40
33827;DHT22;20128;45.582;5.298;2023-08-06T10:52:32;21.60;52.70
33827;DHT22;20128;45.582;5.298;2023-08-06T10:54:58;21.60;53.00
33827;DHT22;20128;45.582;5.298;2023-08-06T10:57:24;21.60;52.70
33827;DHT22;20128;45.582;5.298;2023-08-06T10:59:50;21.50;53.20
33827;DHT22;20128;45.582;5.298;2023-08-06T11:02:16;21.40;53.00
33827;DHT22;20128;45.582;5.298;2023-08-06T11:04:42;21.40;52.90
33827;DHT22;20128;45.582;5.298;2023-08-06T11:07:07;21.30;53.00
33827;DHT22;20128;45.582;5.298;2023-08-06T11:09:33;21.20;53.30
33827;DHT22;20128;45.582;5.298;2023-08-06T11:11:59;21.20;53.80
33827;DHT22;20128;45.582;5.298;2023-08-06T11:14:24;21.30;54.10
33827;DHT22;20128;45.582;5.298;2023-08-06T11:16:50;21.30;53.60
33827;DHT22;20128;45.582;5.298;2023-08-06T11:19:16;21.30;53.40
33827;DHT22;20128;45.582;5.298;2023-08-06T11:21:43;21.30;54.00
33827;DHT22;20128;45.582;5.298;2023-08-06T11:24:12;21.30;53.30
33827;DHT22;20128;45.582;5.298;2023-08-06T11:26:38;21.40;53.40
33827;DHT22;20128;45.582;5.298;2023-08-06T11:29:05;21.40;52.70
33827;DHT22;20128;45.582;5.298;2023-08-06T11:31:31;21.50;52.60
33827;DHT22;20128;45.582;5.298;2023-08-06T11:33:57;21.50;51.80
33827;DHT22;20128;45.582;5.298;2023-08-06T11:38:55;21.40;52.00
33827;DHT22;20128;45.582;5.298;2023-08-06T11:41:21;21.60;51.70
33827;DHT22;20128;45.582;5.298;2023-08-06T11:43:47;21.80;51.80
33827;DHT22;20128;45.582;5.298;2023-08-06T11:46:13;22.10;50.30
33827;DHT22;20128;45.582;5.298;2023-08-06T11:48:58;22.20;50.80
33827;DHT22;20128;45.582;5.298;2023-08-06T11:51:24;22.20;48.60
33827;DHT22;20128;45.582;5.298;2023-08-06T11:53:55;22.20;49.50
33827;DHT22;20128;45.582;5.298;2023-08-06T11:56:22;22.20;50.10
33827;DHT22;20128;45.582;5.298;2023-08-06T11:58:48;22.20;50.60
33827;DHT22;20128;45.582;5.298;2023-08-06T12:01:14;22.10;49.40
33827;DHT22;20128;45.582;5.298;2023-08-06T12:03:40;22.00;49.40
33827;DHT22;20128;45.582;5.298;2023-08-06T12:06:06;22.00;50.00
33827;DHT22;20128;45.582;5.298;2023-08-06T12:08:32;22.00;48.40
33827;DHT22;20128;45.582;5.298;2023-08-06T12:10:58;22.10;49.40
33827;DHT22;20128;45.582;5.298;2023-08-06T12:13:24;22.00;49.50
33827;DHT22;20128;45.582;5.298;2023-08-06T12:15:50;22.00;49.70
33827;DHT22;20128;45.582;5.298;2023-08-06T12:18:18;22.10;50.50
33827;DHT22;20128;45.582;5.298;2023-08-06T12:20:44;22.20;50.00
33827;DHT22;20128;45.582;5.298;2023-08-06T12:23:09;22.20;49.50
33827;DHT22;20128;45.582;5.298;2023-08-06T12:25:35;22.20;49.20
33827;DHT22;20128;45.582;5.298;2023-08-06T12:28:01;22.20;49.90
33827;DHT22;20128;45.582;5.298;2023-08-06T12:30:28;22.30;49.80
33827;DHT22;20128;45.582;5.298;2023-08-06T12:32:53;22.50;48.00
33827;DHT22;20128;45.582;5.298;2023-08-06T12:35:19;22.50;48.30
33827;DHT22;20128;45.582;5.298;2023-08-06T12:37:45;22.60;49.20
33827;DHT22;20128;45.582;5.298;2023-08-06T12:40:11;22.60;48.30
33827;DHT22;20128;45.582;5.298;2023-08-06T12:42:36;22.70;48.10
33827;DHT22;20128;45.582;5.298;2023-08-06T12:45:02;22.70;48.60
33827;DHT22;20128;45.582;5.298;2023-08-06T12:47:28;22.70;47.40
33827;DHT22;20128;45.582;5.298;2023-08-06T12:49:53;22.70;47.60
33827;DHT22;20128;45.582;5.298;2023-08-06T12:52:19;22.70;47.80
33827;DHT22;20128;45.582;5.298;2023-08-06T12:54:45;22.70;47.90
33827;DHT22;20128;45.582;5.298;2023-08-06T12:57:11;22.70;48.40
33827;DHT22;20128;45.582;5.298;2023-08-06T12:59:37;22.70;48.00
33827;DHT22;20128;45.582;5.298;2023-08-06T13:02:03;22.70;47.50
33827;DHT22;20128;45.582;5.298;2023-08-06T13:04:29;22.70;47.40
33827;DHT22;20128;45.582;5.298;2023-08-06T13:06:54;22.70;46.90
33827;DHT22;20128;45.582;5.298;2023-08-06T13:09:20;22.70;47.10
33827;DHT22;20128;45.582;5.298;2023-08-06T13:11:46;22.60;47.00
33827;DHT22;20128;45.582;5.298;2023-08-06T13:14:15;22.60;47.40
33827;DHT22;20128;45.582;5.298;2023-08-06T13:16:42;22.60;48.00
33827;DHT22;20128;45.582;5.298;2023-08-06T13:19:09;22.60;48.10
33827;DHT22;20128;45.582;5.298;2023-08-06T13:24:07;22.70;48.80
33827;DHT22;20128;45.582;5.298;2023-08-06T13:26:33;22.70;48.70
33827;DHT22;20128;45.582;5.298;2023-08-06T13:29:00;22.80;48.50
33827;DHT22;20128;45.582;5.298;2023-08-06T13:31:27;22.80;48.70
33827;DHT22;20128;45.582;5.298;2023-08-06T13:33:57;22.80;48.60
33827;DHT22;20128;45.582;5.298;2023-08-06T13:36:29;22.70;48.60
33827;DHT22;20128;45.582;5.298;2023-08-06T13:38:55;22.70;49.00
33827;DHT22;20128;45.582;5.298;2023-08-06T13:41:21;22.80;49.30
33827;DHT22;20128;45.582;5.298;2023-08-06T13:43:46;22.90;49.30
33827;DHT22;20128;45.582;5.298;2023-08-06T13:46:12;22.90;49.30
33827;DHT22;20128;45.582;5.298;2023-08-06T13:48:41;22.90;48.20
33827;DHT22;20128;45.582;5.298;2023-08-06T13:51:07;22.90;47.80
33827;DHT22;20128;45.582;5.298;2023-08-06T13:53:33;22.90;48.30
33827;DHT22;20128;45.582;5.298;2023-08-06T13:55:59;23.00;48.60
33827;DHT22;20128;45.582;5.298;2023-08-06T13:58:24;23.10;48.30
33827;DHT22;20128;45.582;5.298;2023-08-06T14:00:51;23.10;48.00
33827;DHT22;20128;45.582;5.298;2023-08-06T14:03:18;23.20;48.40
33827;DHT22;20128;45.582;5.298;2023-08-06T14:05:44;23.40;47.20
33827;DHT22;20128;45.582;5.298;2023-08-06T14:08:10;23.60;46.60
33827;DHT22;20128;45.582;5.298;2023-08-06T14:10:35;23.80;45.70
33827;DHT22;20128;45.582;5.298;2023-08-06T14:13:01;24.10;45.70
33827;DHT22;20128;45.582;5.298;2023-08-06T14:15:27;24.20;45.30
33827;DHT22;20128;45.582;5.298;2023-08-06T14:17:52;24.40;44.60
33827;DHT22;20128;45.582;5.298;2023-08-06T14:20:18;24.40;44.90
33827;DHT22;20128;45.582;5.298;2023-08-06T14:22:44;24.40;45.00
33827;DHT22;20128;45.582;5.298;2023-08-06T14:25:09;24.30;44.90
33827;DHT22;20128;45.582;5.298;2023-08-06T14:27:36;24.20;45.30
33827;DHT22;20128;45.582;5.298;2023-08-06T14:30:05;24.10;45.00
33827;DHT22;20128;45.582;5.298;2023-08-06T14:32:32;24.00;44.70
33827;DHT22;20128;45.582;5.298;2023-08-06T14:34:57;23.90;44.30
33827;DHT22;20128;45.582;5.298;2023-08-06T14:37:24;23.80;44.50
33827;DHT22;20128;45.582;5.298;2023-08-06T14:39:50;23.80;44.50
33827;DHT22;20128;45.582;5.298;2023-08-06T14:42:16;23.90;44.00
33827;DHT22;20128;45.582;5.298;2023-08-06T14:44:42;24.00;44.00
33827;DHT22;20128;45.582;5.298;2023-08-06T14:47:09;24.10;44.20
33827;DHT22;20128;45.582;5.298;2023-08-06T14:49:35;24.20;43.40
33827;DHT22;20128;45.582;5.298;2023-08-06T14:52:00;24.20;43.80
33827;DHT22;20128;45.582;5.298;2023-08-06T14:54:27;24.10;44.20
33827;DHT22;20128;45.582;5.298;2023-08-06T14:56:53;24.00;44.70
33827;DHT22;20128;45.582;5.298;2023-08-06T14:59:18;23.90;44.60
33827;DHT22;20128;45.582;5.298;2023-08-06T15:01:44;23.80;45.50
33827;DHT22;20128;45.582;5.298;2023-08-06T15:04:10;23.70;46.20
33827;DHT22;20128;45.582;5.298;2023-08-06T15:06:35;23.60;46.10
33827;DHT22;20128;45.582;5.298;2023-08-06T15:09:01;23.70;46.30
33827;DHT22;20128;45.582;5.298;2023-08-06T15:11:27;23.70;46.90
33827;DHT22;20128;45.582;5.298;2023-08-06T15:13:52;23.70;46.50
33827;DHT22;20128;45.582;5.298;2023-08-06T15:16:18;23.70;46.90
33827;DHT22;20128;45.582;5.298;2023-08-06T15:18:44;23.70;47.00
33827;DHT22;20128;45.582;5.298;2023-08-06T15:21:10;23.80;45.90
33827;DHT22;20128;45.582;5.298;2023-08-06T15:23:36;23.80;46.40
33827;DHT22;20128;45.582;5.298;2023-08-06T15:26:04;24.00;46.30
33827;DHT22;20128;45.582;5.298;2023-08-06T15:28:30;24.20;46.20
33827;DHT22;20128;45.582;5.298;2023-08-06T15:30:55;24.40;45.40
33827;DHT22;20128;45.582;5.298;2023-08-06T15:33:21;24.50;45.50
33827;DHT22;20128;45.582;5.298;2023-08-06T15:35:47;24.60;44.90